sensor_id;sensor_type;location;lat;lon;timestamp;temperature;humidity
44723;DHT22;30451;48.638;10.624;2023-09-19T00:00:26;25.60;54.00
44723;DHT22;30451;48.638;10.624;2023-09-19T00:02:56;25.50;53.90
44723;DHT22;30451;48.638;10.624;2023-09-19T00:05:26;25.50;54.00
44723;DHT22;30451;48.638;10.624;2023-09-19T00:07:54;25.50;54.50
44723;DHT22;30451;48.638;10.624;2023-09-19T00:10:24;25.50;54.00
44723;DHT22;30451;48.638;10.624;2023-09-19T00:12:51;25.50;54.50
44723;DHT22;30451;48.638;10.624;2023-09-19T00:15:18;25.50;54.00
44723;DHT22;30451;48.638;10.624;2023-09-19T00:17:44;25.50;54.00
44723;DHT22;30451;48.638;10.624;2023-09-19T00:20:11;25.50;54.00
44723;DHT22;30451;48.638;10.624;2023-09-19T00:22:41;25.50;54.00
44723;DHT22;30451;48.638;10.624;2023-09-19T00:25:14;25.50;54.10
44723;DHT22;30451;48.638;10.624;2023-09-19T00:27:41;25.50;54.10
44723;DHT22;30451;48.638;10.624;2023-09-19T00:30:09;25.50;54.10
44723;DHT22;30451;48.638;10.624;2023-09-19T00:32:40;25.50;54.10
44723;DHT22;30451;48.638;10.624;2023-09-19T00:35:06;25.50;54.20
44723;DHT22;30451;48.638;10.624;2023-09-19T00:37:34;25.40;54.10
44723;DHT22;30451;48.638;10.624;2023-09-19T00:40:01;25.40;54.10
44723;DHT22;30451;48.638;10.624;2023-09-19T00:42:27;25.40;54.10
44723;DHT22;30451;48.638;10.624;2023-09-19T00:44:53;25.40;54.10
44723;DHT22;30451;48.638;10.624;2023-09-19T00:47:19;25.40;54.10
44723;DHT22;30451;48.638;10.624;2023-09-19T00:49:45;25.40;54.10
44723;DHT22;30451;48.638;10.624;2023-09-19T00:52:14;25.40;54.70
44723;DHT22;30451;48.638;10.624;2023-09-19T00:54:41;25.40;54.20
44723;DHT22;30451;48.638;10.624;2023-09-19T00:57:07;25.40;54.20
44723;DHT22;30451;48.638;10.624;2023-09-19T00:59:34;25.40;54.20
44723;DHT22;30451;48.638;10.624;2023-09-19T01:02:02;25.40;54.20
44723;DHT22;30451;48.638;10.624;2023-09-19T01:04:28;25.40;54.20
44723;DHT22;30451;48.638;10.624;2023-09-19T01:06:54;25.40;54.20
44723;DHT22;30451;48.638;10.624;2023-09-19T01:09:20;25.40;54.20
44723;DHT22;30451;48.638;10.624;2023-09-19T01:11:48;25.40;54.20
44723;DHT22;30451;48.638;10.624;2023-09-19T01:15:14;25.40;54.20
44723;DHT22;30451;48.638;10.624;2023-09-19T01:17:32;25.40;54.30
44723;DHT22;30451;48.638;10.624;2023-09-19T01:22:58;25.40;54.30
44723;DHT22;30451;48.638;10.624;2023-09-19T01:25:50;25.40;54.30
44723;DHT22;30451;48.638;10.624;2023-09-19T01:30:57;25.30;54.30
44723;DHT22;30451;48.638;10.624;2023-09-19T01:33:25;25.30;54.30
44723;DHT22;30451;48.638;10.624;2023-09-19T01:35:51;25.30;54.30
44723;DHT22;30451;48.638;10.624;2023-09-19T01:38:19;25.30;54.30
44723;DHT22;30451;48.638;10.624;2023-09-19T01:41:09;25.30;54.30
44723;DHT22;30451;48.638;10.624;2023-09-19T01:43:42;25.30;54.30
44723;DHT22;30451;48.638;10.624;2023-09-19T01:46:15;25.30;54.30
44723;DHT22;30451;48.638;10.624;2023-09-19T01:51:10;25.30;54.30
44723;DHT22;30451;48.638;10.624;2023-09-19T01:53:51;25.30;54.40
44723;DHT22;30451;48.638;10.624;2023-09-19T01:56:32;25.30;54.40
44723;DHT22;30451;48.638;10.624;2023-09-19T01:59:06;25.30;54.40
44723;DHT22;30451;48.638;10.624;2023-09-19T02:01:34;25.20;54.30
44723;DHT22;30451;48.638;10.624;2023-09-19T02:04:02;25.30;54.40
44723;DHT22;30451;48.638;10.624;2023-09-19T02:06:28;25.30;54.40
44723;DHT22;30451;48.638;10.624;2023-09-19T02:08:54;25.30;54.40
44723;DHT22;30451;48.638;10.624;2023-09-19T02:11:21;25.20;54.30
44723;DHT22;30451;48.638;10.624;2023-09-19T02:13:47;25.20;54.40
44723;DHT22;30451;48.638;10.624;2023-09-19T02:16:12;25.20;54.40
44723;DHT22;30451;48.638;10.624;2023-09-19T02:18:39;25.20;54.40
44723;DHT22;30451;48.638;10.624;2023-09-19T02:21:05;25.20;54.40
44723;DHT22;30451;48.638;10.624;2023-09-19T02:23:32;25.20;54.40
44723;DHT22;30451;48.638;10.624;2023-09-19T02:25:59;25.20;54.40
44723;DHT22;30451;48.638;10.624;2023-09-19T02:28:29;25.20;54.90
44723;DHT22;30451;48.638;10.624;2023-09-19T02:31:01;25.20;54.40
44723;DHT22;30451;48.638;10.624;2023-09-19T02:33:26;25.20;54.40
44723;DHT22;30451;48.638;10.624;2023-09-19T02:35:59;25.20;54.40
44723;DHT22;30451;48.638;10.624;2023-09-19T02:38:27;25.20;54.40
44723;DHT22;30451;48.638;10.624;2023-09-19T02:40:54;25.20;54.90
44723;DHT22;30451;48.638;10.624;2023-09-19T02:43:21;25.20;54.40
44723;DHT22;30451;48.638;10.624;2023-09-19T02:45:47;25.20;54.40
44723;DHT22;30451;48.638;10.624;2023-09-19T02:48:15;25.20;54.40
44723;DHT22;30451;48.638;10.624;2023-09-19T02:50:41;25.10;54.40
44723;DHT22;30451;48.638;10.624;2023-09-19T02:53:07;25.20;54.50
44723;DHT22;30451;48.638;10.624;2023-09-19T02:55:33;25.20;54.50
44723;DHT22;30451;48.638;10.624;2023-09-19T02:57:59;25.10;54.40
44723;DHT22;30451;48.638;10.624;2023-09-19T03:00:27;25.10;54.40
44723;DHT22;30451;48.638;10.624;2023-09-19T03:02:54;25.10;54.40
44723;DHT22;30451;48.638;10.624;2023-09-19T03:05:21;25.10;54.40
44723;DHT22;30451;48.638;10.624;2023-09-19T03:07:47;25.10;54.50
44723;DHT22;30451;48.638;10.624;2023-09-19T03:10:19;25.10;54.40
44723;DHT22;30451;48.638;10.624;2023-09-19T03:12:46;25.10;54.40
44723;DHT22;30451;48.638;10.624;2023-09-19T03:15:12;25.10;54.50
44723;DHT22;30451;48.638;10.624;2023-09-19T03:17:37;25.10;54.50
44723;DHT22;30451;48.638;10.624;2023-09-19T03:20:03;25.10;54.50
44723;DHT22;30451;48.638;10.624;2023-09-19T03:22:34;25.10;54.50
44723;DHT22;30451;48.638;10.624;2023-09-19T03:25:00;25.10;54.50
44723;DHT22;30451;48.638;10.624;2023-09-19T03:27:26;25.10;54.50
44723;DHT22;30451;48.638;10.624;2023-09-19T03:29:52;25.10;54.50
44723;DHT22;30451;48.638;10.624;2023-09-19T03:32:19;25.10;54.50
44723;DHT22;30451;48.638;10.624;2023-09-19T03:34:44;25.10;54.50
44723;DHT22;30451;48.638;10.624;2023-09-19T03:37:10;25.10;54.50
44723;DHT22;30451;48.638;10.624;2023-09-19T03:39:36;25.10;54.50
44723;DHT22;30451;48.638;10.624;2023-09-19T03:42:02;25.10;54.50
44723;DHT22;30451;48.638;10.624;2023-09-19T03:44:29;25.10;54.50
44723;DHT22;30451;48.638;10.624;2023-09-19T03:46:55;25.10;54.80
44723;DHT22;30451;48.638;10.624;2023-09-19T03:49:22;25.10;54.60
44723;DHT22;30451;48.638;10.624;2023-09-19T03:51:47;25.10;54.60
44723;DHT22;30451;48.638;10.624;2023-09-19T03:54:13;25.10;54.60
44723;DHT22;30451;48.638;10.624;2023-09-19T03:56:39;25.10;54.60
44723;DHT22;30451;48.638;10.624;2023-09-19T03:59:04;25.10;54.60
44723;DHT22;30451;48.638;10.624;2023-09-19T04:01:30;25.00;54.50
44723;DHT22;30451;48.638;10.624;2023-09-19T04:03:58;25.00;54.50
44723;DHT22;30451;48.638;10.624;2023-09-19T04:06:24;25.00;54.50
44723;DHT22;30451;48.638;10.624;2023-09-19T04:08:49;25.00;54.60
44723;DHT22;30451;48.638;10.624;2023-09-19T04:11:15;25.00;54.60
44723;DHT22;30451;48.638;10.624;2023-09-19T04:13:41;25.00;54.60
44723;DHT22;30451;48.638;10.624;2023-09-19T04:16:06;25.00;54.60
44723;DHT22;30451;48.638;10.624;2023-09-19T04:18:32;25.00;54.60
44723;DHT22;30451;48.638;10.624;2023-09-19T04:20:59;25.00;54.60
44723;DHT22;30451;48.638;10.624;2023-09-19T04:23:28;25.00;54.60
44723;DHT22;30451;48.638;10.624;2023-09-19T04:25:53;25.00;54.60
44723;DHT22;30451;48.638;10.624;2023-09-19T04:28:19;25.00;54.60
44723;DHT22;30451;48.638;10.624;2023-09-19T04:30:45;25.00;54.60
44723;DHT22;30451;48.638;10.624;2023-09-19T04:33:10;25.00;54.70
44723;DHT22;30451;48.638;10.624;2023-09-19T04:35:40;25.00;54.70
44723;DHT22;30451;48.638;10.624;2023-09-19T04:38:07;25.00;54.70
44723;DHT22;30451;48.638;10.624;2023-09-19T04:40:33;25.00;54.70
44723;DHT22;30451;48.638;10.624;2023-09-19T04:42:59;25.00;54.70
44723;DHT22;30451;48.638;10.624;2023-09-19T04:45:26;25.00;54.70
44723;DHT22;30451;48.638;10.624;2023-09-19T04:47:52;25.00;54.70
44723;DHT22;30451;48.638;10.624;2023-09-19T04:50:19;25.00;54.70
44723;DHT22;30451;48.638;10.624;2023-09-19T04:52:45;25.00;54.70
44723;DHT22;30451;48.638;10.624;2023-09-19T04:55:12;25.00;54.80
44723;DHT22;30451;48.638;10.624;2023-09-19T04:57:43;25.00;54.70
44723;DHT22;30451;48.638;10.624;2023-09-19T05:00:13;25.00;54.80
44723;DHT22;30451;48.638;10.624;2023-09-19T05:02:40;24.90;54.70
44723;DHT22;30451;48.638;10.624;2023-09-19T05:05:07;24.90;54.70
44723;DHT22;30451;48.638;10.624;2023-09-19T05:07:34;24.90;54.70
44723;DHT22;30451;48.638;10.624;2023-09-19T05:10:00;24.90;54.70
44723;DHT22;30451;48.638;10.624;2023-09-19T05:12:28;24.90;54.70
44723;DHT22;30451;48.638;10.624;2023-09-19T05:14:55;24.90;54.70
44723;DHT22;30451;48.638;10.624;2023-09-19T05:17:20;24.90;54.70
44723;DHT22;30451;48.638;10.624;2023-09-19T05:19:46;24.90;54.70
44723;DHT22;30451;48.638;10.624;2023-09-19T05:22:12;24.90;54.70
44723;DHT22;30451;48.638;10.624;2023-09-19T05:24:38;24.90;54.70
44723;DHT22;30451;48.638;10.624;2023-09-19T05:27:05;24.90;54.70
44723;DHT22;30451;48.638;10.624;2023-09-19T05:29:32;24.90;54.70
44723;DHT22;30451;48.638;10.624;2023-09-19T05:31:59;24.90;54.70
44723;DHT22;30451;48.638;10.624;2023-09-19T05:34:24;24.90;54.70
44723;DHT22;30451;48.638;10.624;2023-09-19T05:36:53;24.90;54.70
44723;DHT22;30451;48.638;10.624;2023-09-19T05:39:19;24.90;54.70
44723;DHT22;30451;48.638;10.624;2023-09-19T05:41:45;24.90;54.70
44723;DHT22;30451;48.638;10.624;2023-09-19T05:44:13;24.90;54.70
44723;DHT22;30451;48.638;10.624;2023-09-19T05:46:39;24.90;54.70
44723;DHT22;30451;48.638;10.624;2023-09-19T05:49:05;24.90;54.70
44723;DHT22;30451;48.638;10.624;2023-09-19T05:51:31;24.90;54.70
44723;DHT22;30451;48.638;10.624;2023-09-19T05:53:56;24.90;54.70
44723;DHT22;30451;48.638;10.624;2023-09-19T05:56:23;24.90;55.30
44723;DHT22;30451;48.638;10.624;2023-09-19T05:58:48;24.90;54.70
44723;DHT22;30451;48.638;10.624;2023-09-19T06:01:15;24.90;54.70
44723;DHT22;30451;48.638;10.624;2023-09-19T06:03:40;24.80;54.90
44723;DHT22;30451;48.638;10.624;2023-09-19T06:06:06;24.80;54.90
44723;DHT22;30451;48.638;10.624;2023-09-19T06:08:32;24.90;55.00
44723;DHT22;30451;48.638;10.624;2023-09-19T06:10:59;24.90;55.00
44723;DHT22;30451;48.638;10.624;2023-09-19T06:13:25;24.90;54.80
44723;DHT22;30451;48.638;10.624;2023-09-19T06:15:52;24.90;54.80
44723;DHT22;30451;48.638;10.624;2023-09-19T06:18:18;24.90;54.70
44723;DHT22;30451;48.638;10.624;2023-09-19T06:20:47;25.00;54.70
44723;DHT22;30451;48.638;10.624;2023-09-19T06:23:14;25.00;55.20
44723;DHT22;30451;48.638;10.624;2023-09-19T06:25:40;25.00;54.70
44723;DHT22;30451;48.638;10.624;2023-09-19T06:28:06;25.00;54.60
44723;DHT22;30451;48.638;10.624;2023-09-19T06:30:33;25.00;54.70
44723;DHT22;30451;48.638;10.624;2023-09-19T06:33:00;25.10;54.80
44723;DHT22;30451;48.638;10.624;2023-09-19T06:35:27;25.10;54.80
44723;DHT22;30451;48.638;10.624;2023-09-19T06:37:54;25.10;54.80
44723;DHT22;30451;48.638;10.624;2023-09-19T06:40:23;25.10;54.80
44723;DHT22;30451;48.638;10.624;2023-09-19T06:42:52;25.10;54.80
44723;DHT22;30451;48.638;10.624;2023-09-19T06:45:19;25.10;54.80
44723;DHT22;30451;48.638;10.624;2023-09-19T06:47:47;25.10;54.80
44723;DHT22;30451;48.638;10.624;2023-09-19T06:50:20;25.10;54.80
44723;DHT22;30451;48.638;10.624;2023-09-19T06:52:49;25.10;54.80
44723;DHT22;30451;48.638;10.624;2023-09-19T06:55:16;25.20;54.90
44723;DHT22;30451;48.638;10.624;2023-09-19T06:57:45;25.20;54.80
44723;DHT22;30451;48.638;10.624;2023-09-19T07:00:11;25.20;54.70
44723;DHT22;30451;48.638;10.624;2023-09-19T07:05:20;25.20;54.60
44723;DHT22;30451;48.638;10.624;2023-09-19T07:07:47;25.30;54.30
44723;DHT22;30451;48.638;10.624;2023-09-19T07:10:12;25.30;54.10
44723;DHT22;30451;48.638;10.624;2023-09-19T07:12:39;25.30;53.80
44723;DHT22;30451;48.638;10.624;2023-09-19T07:15:06;25.30;53.70
44723;DHT22;30451;48.638;10.624;2023-09-19T07:17:32;25.30;53.60
44723;DHT22;30451;48.638;10.624;2023-09-19T07:19:58;25.30;53.30
44723;DHT22;30451;48.638;10.624;2023-09-19T07:22:26;25.30;53.80
44723;DHT22;30451;48.638;10.624;2023-09-19T07:24:52;25.30;53.20
44723;DHT22;30451;48.638;10.624;2023-09-19T07:27:17;25.30;53.10
44723;DHT22;30451;48.638;10.624;2023-09-19T07:29:43;25.40;52.90
44723;DHT22;30451;48.638;10.624;2023-09-19T07:32:10;25.30;53.00
44723;DHT22;30451;48.638;10.624;2023-09-19T07:34:37;25.40;53.00
44723;DHT22;30451;48.638;10.624;2023-09-19T07:37:06;25.40;53.00
44723;DHT22;30451;48.638;10.624;2023-09-19T07:39:31;25.40;53.00
44723;DHT22;30451;48.638;10.624;2023-09-19T07:41:57;25.30;52.80
44723;DHT22;30451;48.638;10.624;2023-09-19T07:44:23;25.40;52.80
44723;DHT22;30451;48.638;10.624;2023-09-19T07:46:51;25.40;52.80
44723;DHT22;30451;48.638;10.624;2023-09-19T07:49:17;25.40;52.90
44723;DHT22;30451;48.638;10.624;2023-09-19T07:51:43;25.40;52.90
44723;DHT22;30451;48.638;10.624;2023-09-19T07:54:12;25.50;53.00
44723;DHT22;30451;48.638;10.624;2023-09-19T07:56:38;25.40;52.90
44723;DHT22;30451;48.638;10.624;2023-09-19T07:59:03;25.50;53.00
44723;DHT22;30451;48.638;10.624;2023-09-19T08:01:29;25.50;53.00
44723;DHT22;30451;48.638;10.624;2023-09-19T08:03:55;25.50;53.10
44723;DHT22;30451;48.638;10.624;2023-09-19T08:06:20;25.50;53.10
44723;DHT22;30451;48.638;10.624;2023-09-19T08:08:46;25.50;53.10
44723;DHT22;30451;48.638;10.624;2023-09-19T08:11:12;25.50;53.10
44723;DHT22;30451;48.638;10.624;2023-09-19T08:13:41;25.50;53.10
44723;DHT22;30451;48.638;10.624;2023-09-19T08:16:12;25.50;53.10
44723;DHT22;30451;48.638;10.624;2023-09-19T08:18:40;25.50;53.10
44723;DHT22;30451;48.638;10.624;2023-09-19T08:21:07;25.60;53.20
44723;DHT22;30451;48.638;10.624;2023-09-19T08:23:36;25.60;53.30
44723;DHT22;30451;48.638;10.624;2023-09-19T08:26:01;25.60;53.20
44723;DHT22;30451;48.638;10.624;2023-09-19T08:28:33;25.60;53.20
44723;DHT22;30451;48.638;10.624;2023-09-19T08:31:05;25.60;53.20
44723;DHT22;30451;48.638;10.624;2023-09-19T08:33:35;25.60;53.20
44723;DHT22;30451;48.638;10.624;2023-09-19T08:36:02;25.60;53.20
44723;DHT22;30451;48.638;10.624;2023-09-19T08:38:31;25.60;53.20
44723;DHT22;30451;48.638;10.624;2023-09-19T08:41:07;25.70;53.30
44723;DHT22;30451;48.638;10.624;2023-09-19T08:43:34;25.70;53.30
44723;DHT22;30451;48.638;10.624;2023-09-19T08:46:20;25.70;53.30
44723;DHT22;30451;48.638;10.624;2023-09-19T08:49:04;25.70;53.20
44723;DHT22;30451;48.638;10.624;2023-09-19T08:51:43;25.70;53.20
44723;DHT22;30451;48.638;10.624;2023-09-19T08:54:21;25.70;53.30
44723;DHT22;30451;48.638;10.624;2023-09-19T08:56:49;25.70;53.20
44723;DHT22;30451;48.638;10.624;2023-09-19T08:59:15;25.70;53.30
44723;DHT22;30451;48.638;10.624;2023-09-19T09:01:42;25.70;53.30
44723;DHT22;30451;48.638;10.624;2023-09-19T09:04:09;25.70;53.20
44723;DHT22;30451;48.638;10.624;2023-09-19T09:06:38;25.80;53.30
44723;DHT22;30451;48.638;10.624;2023-09-19T09:09:05;25.80;53.30
44723;DHT22;30451;48.638;10.624;2023-09-19T09:11:33;25.80;53.30
44723;DHT22;30451;48.638;10.624;2023-09-19T09:13:59;25.80;53.30
44723;DHT22;30451;48.638;10.624;2023-09-19T09:16:24;25.80;53.30
44723;DHT22;30451;48.638;10.624;2023-09-19T09:18:51;25.80;53.30
44723;DHT22;30451;48.638;10.624;2023-09-19T09:21:18;25.80;53.30
44723;DHT22;30451;48.638;10.624;2023-09-19T09:23:44;25.80;53.30
44723;DHT22;30451;48.638;10.624;2023-09-19T09:26:10;25.80;53.30
44723;DHT22;30451;48.638;10.624;2023-09-19T09:28:36;25.80;53.30
44723;DHT22;30451;48.638;10.624;2023-09-19T09:31:22;25.80;53.30
44723;DHT22;30451;48.638;10.624;2023-09-19T09:33:55;25.80;53.20
44723;DHT22;30451;48.638;10.624;2023-09-19T09:36:53;25.80;53.20
44723;DHT22;30451;48.638;10.624;2023-09-19T09:39:31;25.80;53.20
44723;DHT22;30451;48.638;10.624;2023-09-19T09:41:57;25.90;53.20
44723;DHT22;30451;48.638;10.624;2023-09-19T09:44:24;25.90;53.30
44723;DHT22;30451;48.638;10.624;2023-09-19T09:46:53;25.90;53.20
44723;DHT22;30451;48.638;10.624;2023-09-19T09:49:26;25.90;53.20
44723;DHT22;30451;48.638;10.624;2023-09-19T09:52:06;25.90;53.20
44723;DHT22;30451;48.638;10.624;2023-09-19T09:54:34;25.90;53.20
44723;DHT22;30451;48.638;10.624;2023-09-19T09:57:05;25.90;53.20
44723;DHT22;30451;48.638;10.624;2023-09-19T10:02:18;25.90;53.10
44723;DHT22;30451;48.638;10.624;2023-09-19T10:04:50;25.90;53.10
44723;DHT22;30451;48.638;10.624;2023-09-19T10:07:29;25.90;53.00
44723;DHT22;30451;48.638;10.624;2023-09-19T10:10:05;25.90;53.00
44723;DHT22;30451;48.638;10.624;2023-09-19T10:12:48;25.90;53.00
44723;DHT22;30451;48.638;10.624;2023-09-19T10:15:18;25.90;53.00
44723;DHT22;30451;48.638;10.624;2023-09-19T10:17:46;25.90;53.00
44723;DHT22;30451;48.638;10.624;2023-09-19T10:20:14;25.90;53.00
44723;DHT22;30451;48.638;10.624;2023-09-19T10:23:07;25.90;53.00
44723;DHT22;30451;48.638;10.624;2023-09-19T10:25:47;26.00;53.00
44723;DHT22;30451;48.638;10.624;2023-09-19T10:28:14;26.00;53.00
44723;DHT22;30451;48.638;10.624;2023-09-19T10:30:45;25.90;52.90
44723;DHT22;30451;48.638;10.624;2023-09-19T10:33:13;26.00;53.00
44723;DHT22;30451;48.638;10.624;2023-09-19T10:35:43;26.00;53.00
44723;DHT22;30451;48.638;10.624;2023-09-19T10:38:11;26.00;52.90
44723;DHT22;30451;48.638;10.624;2023-09-19T10:40:38;26.00;52.90
44723;DHT22;30451;48.638;10.624;2023-09-19T10:43:21;26.00;52.90
44723;DHT22;30451;48.638;10.624;2023-09-19T10:45:48;26.00;52.90
44723;DHT22;30451;48.638;10.624;2023-09-19T10:48:19;26.00;52.90
44723;DHT22;30451;48.638;10.624;2023-09-19T10:53:54;26.00;52.90
44723;DHT22;30451;48.638;10.624;2023-09-19T10:56:26;26.00;52.90
44723;DHT22;30451;48.638;10.624;2023-09-19T10:59:09;26.00;52.90
44723;DHT22;30451;48.638;10.624;2023-09-19T11:01:55;26.00;52.90
44723;DHT22;30451;48.638;10.624;2023-09-19T11:07:10;26.00;52.90
44723;DHT22;30451;48.638;10.624;2023-09-19T11:09:47;26.10;52.90
44723;DHT22;30451;48.638;10.624;2023-09-19T11:15:07;26.00;52.80
44723;DHT22;30451;48.638;10.624;2023-09-19T11:17:40;26.10;52.90
44723;DHT22;30451;48.638;10.624;2023-09-19T11:25:43;26.10;53.10
44723;DHT22;30451;48.638;10.624;2023-09-19T11:30:50;26.10;53.00
44723;DHT22;30451;48.638;10.624;2023-09-19T11:33:23;26.10;53.00
44723;DHT22;30451;48.638;10.624;2023-09-19T11:36:12;26.10;53.00
44723;DHT22;30451;48.638;10.624;2023-09-19T11:43:51;26.10;52.90
44723;DHT22;30451;48.638;10.624;2023-09-19T11:46:17;26.20;53.00
44723;DHT22;30451;48.638;10.624;2023-09-19T11:48:49;26.20;53.00
44723;DHT22;30451;48.638;10.624;2023-09-19T11:51:17;26.20;53.00
44723;DHT22;30451;48.638;10.624;2023-09-19T11:53:56;26.20;53.00
44723;DHT22;30451;48.638;10.624;2023-09-19T11:56:25;26.20;52.90
44723;DHT22;30451;48.638;10.624;2023-09-19T11:58:56;26.20;53.00
44723;DHT22;30451;48.638;10.624;2023-09-19T12:01:31;26.20;52.90
44723;DHT22;30451;48.638;10.624;2023-09-19T12:03:58;26.20;52.90
44723;DHT22;30451;48.638;10.624;2023-09-19T12:06:26;26.20;52.80
44723;DHT22;30451;48.638;10.624;2023-09-19T12:08:52;26.20;52.80
44723;DHT22;30451;48.638;10.624;2023-09-19T12:11:23;26.20;52.70
44723;DHT22;30451;48.638;10.624;2023-09-19T12:13:49;26.20;52.60
44723;DHT22;30451;48.638;10.624;2023-09-19T12:16:17;26.20;52.60
44723;DHT22;30451;48.638;10.624;2023-09-19T12:18:44;26.20;52.50
44723;DHT22;30451;48.638;10.624;2023-09-19T12:21:25;26.20;52.50
44723;DHT22;30451;48.638;10.624;2023-09-19T12:24:05;26.20;52.60
44723;DHT22;30451;48.638;10.624;2023-09-19T12:26:41;26.20;52.60
44723;DHT22;30451;48.638;10.624;2023-09-19T12:29:12;26.20;53.10
44723;DHT22;30451;48.638;10.624;2023-09-19T12:31:50;26.20;52.60
44723;DHT22;30451;48.638;10.624;2023-09-19T12:34:21;26.30;52.60
44723;DHT22;30451;48.638;10.624;2023-09-19T12:36:48;26.30;52.60
44723;DHT22;30451;48.638;10.624;2023-09-19T12:39:24;26.30;52.60
44723;DHT22;30451;48.638;10.624;2023-09-19T12:41:55;26.30;52.60
44723;DHT22;30451;48.638;10.624;2023-09-19T12:44:21;26.30;52.50
44723;DHT22;30451;48.638;10.624;2023-09-19T12:46:50;26.30;52.40
44723;DHT22;30451;48.638;10.624;2023-09-19T12:49:20;26.30;52.40
44723;DHT22;30451;48.638;10.624;2023-09-19T12:51:47;26.30;52.40
44723;DHT22;30451;48.638;10.624;2023-09-19T12:54:13;26.30;52.30
44723;DHT22;30451;48.638;10.624;2023-09-19T12:56:43;26.30;52.30
44723;DHT22;30451;48.638;10.624;2023-09-19T12:59:14;26.30;52.30
44723;DHT22;30451;48.638;10.624;2023-09-19T13:01:41;26.30;52.80
44723;DHT22;30451;48.638;10.624;2023-09-19T13:04:20;26.30;52.10
44723;DHT22;30451;48.638;10.624;2023-09-19T13:06:57;26.30;51.90
44723;DHT22;30451;48.638;10.624;2023-09-19T13:09:27;26.30;51.80
44723;DHT22;30451;48.638;10.624;2023-09-19T13:12:04;26.30;51.70
44723;DHT22;30451;48.638;10.624;2023-09-19T13:14:32;26.30;51.70
44723;DHT22;30451;48.638;10.624;2023-09-19T13:17:06;26.30;51.70
44723;DHT22;30451;48.638;10.624;2023-09-19T13:19:46;26.30;51.70
44723;DHT22;30451;48.638;10.624;2023-09-19T13:22:40;26.40;51.70
44723;DHT22;30451;48.638;10.624;2023-09-19T13:25:18;26.40;51.60
44723;DHT22;30451;48.638;10.624;2023-09-19T13:27:51;26.40;51.60
44723;DHT22;30451;48.638;10.624;2023-09-19T13:30:18;26.30;51.40
44723;DHT22;30451;48.638;10.624;2023-09-19T13:32:44;26.30;51.40
44723;DHT22;30451;48.638;10.624;2023-09-19T13:35:10;26.40;51.50
44723;DHT22;30451;48.638;10.624;2023-09-19T13:37:38;26.40;51.60
44723;DHT22;30451;48.638;10.624;2023-09-19T13:40:08;26.40;51.60
44723;DHT22;30451;48.638;10.624;2023-09-19T13:42:34;26.40;51.50
44723;DHT22;30451;48.638;10.624;2023-09-19T13:45:04;26.40;51.60
44723;DHT22;30451;48.638;10.624;2023-09-19T13:47:33;26.40;51.60
44723;DHT22;30451;48.638;10.624;2023-09-19T13:50:01;26.40;51.60
44723;DHT22;30451;48.638;10.624;2023-09-19T13:52:28;26.40;51.70
44723;DHT22;30451;48.638;10.624;2023-09-19T13:54:56;26.40;52.20
44723;DHT22;30451;48.638;10.624;2023-09-19T13:57:23;26.40;51.60
44723;DHT22;30451;48.638;10.624;2023-09-19T13:59:49;26.40;51.60
44723;DHT22;30451;48.638;10.624;2023-09-19T14:02:14;26.40;51.60
44723;DHT22;30451;48.638;10.624;2023-09-19T14:04:43;26.40;51.60
44723;DHT22;30451;48.638;10.624;2023-09-19T14:07:09;26.40;51.60
44723;DHT22;30451;48.638;10.624;2023-09-19T14:09:36;26.40;51.60
44723;DHT22;30451;48.638;10.624;2023-09-19T14:12:02;26.40;51.60
44723;DHT22;30451;48.638;10.624;2023-09-19T14:14:28;26.40;51.60
44723;DHT22;30451;48.638;10.624;2023-09-19T14:16:54;26.40;51.60
44723;DHT22;30451;48.638;10.624;2023-09-19T14:19:20;26.40;51.60
44723;DHT22;30451;48.638;10.624;2023-09-19T14:21:46;26.40;51.60
44723;DHT22;30451;48.638;10.624;2023-09-19T14:24:16;26.40;51.50
44723;DHT22;30451;48.638;10.624;2023-09-19T14:26:42;26.40;51.50
44723;DHT22;30451;48.638;10.624;2023-09-19T14:29:11;26.40;51.50
44723;DHT22;30451;48.638;10.624;2023-09-19T14:31:37;26.40;51.50
44723;DHT22;30451;48.638;10.624;2023-09-19T14:34:04;26.50;51.50
44723;DHT22;30451;48.638;10.624;2023-09-19T14:36:30;26.40;51.50
44723;DHT22;30451;48.638;10.624;2023-09-19T14:38:56;26.50;51.60
44723;DHT22;30451;48.638;10.624;2023-09-19T14:41:24;26.40;51.50
44723;DHT22;30451;48.638;10.624;2023-09-19T14:43:53;26.40;51.50
44723;DHT22;30451;48.638;10.624;2023-09-19T14:46:20;26.50;51.50
44723;DHT22;30451;48.638;10.624;2023-09-19T14:48:46;26.50;51.50
44723;DHT22;30451;48.638;10.624;2023-09-19T14:51:15;26.50;51.50
44723;DHT22;30451;48.638;10.624;2023-09-19T14:53:41;26.50;51.50
44723;DHT22;30451;48.638;10.624;2023-09-19T14:56:10;26.50;51.50
44723;DHT22;30451;48.638;10.624;2023-09-19T14:58:36;26.50;51.40
44723;DHT22;30451;48.638;10.624;2023-09-19T15:01:08;26.50;51.50
44723;DHT22;30451;48.638;10.624;2023-09-19T15:03:36;26.50;51.60
44723;DHT22;30451;48.638;10.624;2023-09-19T15:06:03;26.50;51.50
44723;DHT22;30451;48.638;10.624;2023-09-19T15:08:30;26.50;51.50
44723;DHT22;30451;48.638;10.624;2023-09-19T15:10:56;26.50;51.40
44723;DHT22;30451;48.638;10.624;2023-09-19T15:13:24;26.50;51.40
44723;DHT22;30451;48.638;10.624;2023-09-19T15:15:58;26.50;51.50
44723;DHT22;30451;48.638;10.624;2023-09-19T15:18:25;26.50;51.50
44723;DHT22;30451;48.638;10.624;2023-09-19T15:20:50;26.60;51.50
44723;DHT22;30451;48.638;10.624;2023-09-19T15:23:16;26.60;51.60
44723;DHT22;30451;48.638;10.624;2023-09-19T15:25:48;26.60;51.50
44723;DHT22;30451;48.638;10.624;2023-09-19T15:28:14;26.60;51.50
44723;DHT22;30451;48.638;10.624;2023-09-19T15:30:40;26.60;51.40
44723;DHT22;30451;48.638;10.624;2023-09-19T15:33:05;26.60;51.40
44723;DHT22;30451;48.638;10.624;2023-09-19T15:35:31;26.60;51.40
44723;DHT22;30451;48.638;10.624;2023-09-19T15:37:57;26.60;51.40
44723;DHT22;30451;48.638;10.624;2023-09-19T15:40:25;26.60;51.50
44723;DHT22;30451;48.638;10.624;2023-09-19T15:42:51;26.50;51.40
44723;DHT22;30451;48.638;10.624;2023-09-19T15:45:16;26.60;51.50
44723;DHT22;30451;48.638;10.624;2023-09-19T15:47:44;26.50;51.40
44723;DHT22;30451;48.638;10.624;2023-09-19T15:50:10;26.50;51.50
44723;DHT22;30451;48.638;10.624;2023-09-19T15:52:38;26.50;51.50
44723;DHT22;30451;48.638;10.624;2023-09-19T15:55:05;26.50;51.50
44723;DHT22;30451;48.638;10.624;2023-09-19T15:57:32;26.50;51.50
44723;DHT22;30451;48.638;10.624;2023-09-19T15:59:59;26.50;51.50